Time;durP1;ratioP1;P1;durP2;ratioP2;P2;SDS_P1;SDS_P2;PMS_P1;PMS_P2;Temp;Humidity;BMP_temperature;BMP_pressure;BME280_temperature;BME280_humidity;BME280_pressure;Samples;Min_cycle;Max_cycle;Signal;HPM_P1;HPM_P2
2021/11/08 00:02:03;;;;;;;8.80;5.50;;;;;;;;;;5094034;28;20066;-72
2021/11/08 00:04:31;;;;;;;8.85;4.90;;;;;;;;;;5093973;28;20027;-73
2021/11/08 00:06:58;;;;;;;7.63;5.03;;;;;;;;;;5112290;28;20378;-75
2021/11/08 00:09:24;;;;;;;8.48;4.90;;;;;;;;;;5102334;28;20020;-74
2021/11/08 00:11:51;;;;;;;11.43;5.45;;;;;;;;;;5073409;28;20498;-74
2021/11/08 00:14:20;;;;;;;8.07;5.43;;;;;;;;;;5091688;28;20029;-70
2021/11/08 00:22:13;;;;;;;10.13;4.57;;;;;;;;;;5112178;28;20506;-71
2021/11/08 00:24:40;;;;;;;8.52;5.13;;;;;;;;;;5108828;28;20174;-71
2021/11/08 00:27:07;;;;;;;8.07;4.70;;;;;;;;;;5112026;28;20022;-71
2021/11/08 00:29:34;;;;;;;7.05;4.53;;;;;;;;;;5112114;28;20020;-71
2021/11/08 00:32:01;;;;;;;10.18;5.18;;;;;;;;;;5103518;28;20143;-71
2021/11/08 00:34:28;;;;;;;7.78;4.75;;;;;;;;;;5073444;28;20028;-71
2021/11/08 00:36:54;;;;;;;7.68;4.72;;;;;;;;;;5101194;28;20023;-71
2021/11/08 00:39:20;;;;;;;10.50;5.10;;;;;;;;;;5112000;28;20047;-72
2021/11/08 00:41:46;;;;;;;8.05;4.40;;;;;;;;;;5109672;28;20019;-71
2021/11/08 00:44:13;;;;;;;9.63;4.88;;;;;;;;;;5092693;28;20505;-71
2021/11/08 00:46:39;;;;;;;10.48;4.68;;;;;;;;;;5111762;28;20028;-71
2021/11/08 00:49:06;;;;;;;7.68;4.40;;;;;;;;;;5102619;28;20085;-70
2021/11/08 00:51:37;;;;;;;7.60;4.00;;;;;;;;;;5091778;28;20378;-72
2021/11/08 00:54:09;;;;;;;6.75;4.07;;;;;;;;;;5099123;28;20032;-72
2021/11/08 00:56:35;;;;;;;7.45;4.53;;;;;;;;;;5111757;28;20032;-74
2021/11/08 00:59:01;;;;;;;8.82;4.25;;;;;;;;;;5091487;28;20114;-73
2021/11/08 01:01:27;;;;;;;9.32;4.22;;;;;;;;;;5110670;28;20058;-74
2021/11/08 01:03:53;;;;;;;6.97;4.32;;;;;;;;;;5096893;28;20031;-72
2021/11/08 01:06:21;;;;;;;7.82;4.40;;;;;;;;;;5103966;28;20042;-73
2021/11/08 01:08:47;;;;;;;8.35;4.38;;;;;;;;;;5099098;28;20016;-73
2021/11/08 01:11:14;;;;;;;8.07;4.53;;;;;;;;;;5094127;28;20023;-71
2021/11/08 01:13:40;;;;;;;9.73;4.63;;;;;;;;;;5115104;28;20032;-74
2021/11/08 01:16:07;;;;;;;19.48;4.13;;;;;;;;;;5113707;28;20494;-70
2021/11/08 01:18:33;;;;;;;12.75;4.57;;;;;;;;;;5113451;28;20027;-72
2021/11/08 01:20:59;;;;;;;7.28;4.18;;;;;;;;;;5114967;28;20023;-72
2021/11/08 01:23:31;;;;;;;8.40;4.05;;;;;;;;;;5111700;28;20089;-71
2021/11/08 01:26:09;;;;;;;7.13;3.53;;;;;;;;;;5096624;28;20752;-71
2021/11/08 01:28:47;;;;;;;7.88;3.92;;;;;;;;;;5111670;28;20034;-71
2021/11/08 01:31:14;;;;;;;8.18;4.38;;;;;;;;;;5114969;28;20020;-70
2021/11/08 01:33:44;;;;;;;8.90;4.40;;;;;;;;;;5112622;28;20574;-71
2021/11/08 01:36:15;;;;;;;6.88;4.25;;;;;;;;;;5113760;28;20023;-72
2021/11/08 01:38:47;;;;;;;7.22;4.30;;;;;;;;;;5096183;28;20034;-71
2021/11/08 01:41:14;;;;;;;10.15;4.07;;;;;;;;;;5111638;28;20020;-71
2021/11/08 01:43:41;;;;;;;9.20;4.13;;;;;;;;;;5114697;28;20062;-72
2021/11/08 01:46:07;;;;;;;8.10;3.92;;;;;;;;;;5094126;28;20056;-72
2021/11/08 01:48:33;;;;;;;6.78;3.95;;;;;;;;;;5096317;28;20032;-74
2021/11/08 01:51:00;;;;;;;7.57;4.10;;;;;;;;;;5094726;27;20030;-70
2021/11/08 01:53:26;;;;;;;5.68;3.35;;;;;;;;;;5110453;28;20024;-69
2021/11/08 01:55:52;;;;;;;6.65;3.72;;;;;;;;;;5114395;28;20012;-70
2021/11/08 01:58:20;;;;;;;6.10;3.60;;;;;;;;;;5092328;28;20032;-72
2021/11/08 02:00:47;;;;;;;9.18;3.67;;;;;;;;;;5113992;28;20034;-72
2021/11/08 02:03:13;;;;;;;6.40;3.80;;;;;;;;;;5111107;28;20031;-73
2021/11/08 02:05:39;;;;;;;7.43;3.35;;;;;;;;;;5114168;28;20482;-72
2021/11/08 02:08:05;;;;;;;7.40;3.75;;;;;;;;;;5108448;28;20028;-72
2021/11/08 02:10:32;;;;;;;5.97;3.60;;;;;;;;;;5096056;28;20032;-70
2021/11/08 02:12:58;;;;;;;6.22;3.40;;;;;;;;;;5093192;28;20016;-73
2021/11/08 02:15:24;;;;;;;6.60;3.33;;;;;;;;;;5102928;28;20043;-71
2021/11/08 02:17:50;;;;;;;7.55;3.35;;;;;;;;;;5095381;28;20128;-72
2021/11/08 02:20:21;;;;;;;5.97;3.50;;;;;;;;;;5111248;28;20051;-71
2021/11/08 02:22:50;;;;;;;5.72;2.88;;;;;;;;;;5112677;28;20104;-72
2021/11/08 02:25:17;;;;;;;5.82;3.60;;;;;;;;;;5113495;28;20084;-70
2021/11/08 02:27:44;;;;;;;5.57;3.15;;;;;;;;;;5110800;28;20023;-74
2021/11/08 02:30:10;;;;;;;6.32;2.70;;;;;;;;;;5113491;28;20077;-70
2021/11/08 02:32:37;;;;;;;4.85;2.78;;;;;;;;;;5081440;28;20035;-71
2021/11/08 02:35:05;;;;;;;10.40;3.22;;;;;;;;;;5113536;28;20023;-72
2021/11/08 02:37:32;;;;;;;7.57;3.40;;;;;;;;;;5110863;28;20100;-72
2021/11/08 02:39:59;;;;;;;8.45;2.95;;;;;;;;;;5112273;28;20593;-69
2021/11/08 02:42:25;;;;;;;6.00;3.58;;;;;;;;;;5113034;28;20034;-71
2021/11/08 02:44:51;;;;;;;7.35;2.78;;;;;;;;;;5110391;28;20490;-70
2021/11/08 02:47:18;;;;;;;6.68;3.10;;;;;;;;;;5112995;28;20019;-72
2021/11/08 02:49:46;;;;;;;4.70;2.53;;;;;;;;;;5098058;28;20012;-74
2021/11/08 02:52:16;;;;;;;11.80;3.05;;;;;;;;;;5112958;28;20020;-71
2021/11/08 02:54:46;;;;;;;5.28;2.70;;;;;;;;;;5093508;28;20035;-71
2021/11/08 02:57:12;;;;;;;5.75;2.80;;;;;;;;;;5093569;28;20035;-73
2021/11/08 02:59:39;;;;;;;5.32;2.90;;;;;;;;;;5113077;28;20402;-74
2021/11/08 03:02:06;;;;;;;5.25;3.00;;;;;;;;;;5109695;28;20023;-73
2021/11/08 03:04:38;;;;;;;5.30;2.80;;;;;;;;;;5110519;28;20054;-73
2021/11/08 03:07:05;;;;;;;4.72;2.72;;;;;;;;;;5094585;28;20020;-72
2021/11/08 03:09:33;;;;;;;4.43;2.55;;;;;;;;;;5083782;28;20028;-72
2021/11/08 03:12:06;;;;;;;4.75;2.47;;;;;;;;;;5091737;28;20016;-70
2021/11/08 03:14:34;;;;;;;17.80;3.22;;;;;;;;;;5110683;28;20543;-71
2021/11/08 03:17:02;;;;;;;4.63;2.28;;;;;;;;;;5112338;28;20031;-69
2021/11/08 03:21:58;;;;;;;5.68;2.58;;;;;;;;;;5107295;28;20039;-69
2021/11/08 03:27:29;;;;;;;4.13;2.25;;;;;;;;;;5080771;28;20054;-68
2021/11/08 03:29:56;;;;;;;3.75;2.10;;;;;;;;;;5108508;28;20051;-68
2021/11/08 03:32:23;;;;;;;4.55;2.53;;;;;;;;;;5111543;28;20501;-69
2021/11/08 03:34:57;;;;;;;5.10;2.13;;;;;;;;;;5112074;28;20130;-68
2021/11/08 03:37:24;;;;;;;4.38;2.10;;;;;;;;;;5109220;28;20027;-69
2021/11/08 03:39:51;;;;;;;4.43;2.25;;;;;;;;;;5081493;28;20383;-68
2021/11/08 03:42:18;;;;;;;4.38;2.55;;;;;;;;;;5073743;28;20027;-68
2021/11/08 03:44:44;;;;;;;4.15;2.15;;;;;;;;;;5091909;28;20520;-68
2021/11/08 03:47:10;;;;;;;4.05;2.28;;;;;;;;;;5092394;28;20028;-68
2021/11/08 03:49:37;;;;;;;4.03;2.42;;;;;;;;;;5111149;28;20016;-68
2021/11/08 03:52:03;;;;;;;4.38;2.20;;;;;;;;;;5112028;28;20032;-69
2021/11/08 03:54:29;;;;;;;4.78;2.72;;;;;;;;;;5109188;28;20032;-68
2021/11/08 03:56:56;;;;;;;4.07;2.15;;;;;;;;;;5111793;28;20042;-69
2021/11/08 03:59:22;;;;;;;3.75;2.10;;;;;;;;;;5109158;28;20402;-69
2021/11/08 04:01:49;;;;;;;6.18;2.28;;;;;;;;;;5112077;28;20024;-68
2021/11/08 04:04:15;;;;;;;5.25;2.35;;;;;;;;;;5111135;28;20042;-70
2021/11/08 04:06:41;;;;;;;4.10;2.33;;;;;;;;;;5110042;28;20023;-72
2021/11/08 04:09:08;;;;;;;4.10;1.73;;;;;;;;;;5086491;28;20016;-71
2021/11/08 04:11:35;;;;;;;4.43;2.17;;;;;;;;;;5101778;28;20093;-72
2021/11/08 04:14:02;;;;;;;4.53;2.20;;;;;;;;;;5097700;28;20028;-71
2021/11/08 04:16:29;;;;;;;4.18;2.13;;;;;;;;;;5073511;28;20448;-70
2021/11/08 04:18:57;;;;;;;4.63;2.25;;;;;;;;;;5111511;28;20023;-70
2021/11/08 04:21:24;;;;;;;4.00;2.10;;;;;;;;;;5093584;28;20045;-71
2021/11/08 04:23:50;;;;;;;3.78;2.10;;;;;;;;;;5109167;28;20032;-70
2021/11/08 04:26:23;;;;;;;4.07;2.20;;;;;;;;;;5111640;28;20034;-71
2021/11/08 04:28:53;;;;;;;6.97;2.38;;;;;;;;;;5108547;28;20019;-70
2021/11/08 04:31:19;;;;;;;4.63;1.95;;;;;;;;;;5084151;28;20176;-72
2021/11/08 04:33:49;;;;;;;4.10;2.20;;;;;;;;;;5111500;28;20112;-72
2021/11/08 04:39:15;;;;;;;3.67;1.85;;;;;;;;;;5115208;28;20092;-70
2021/11/08 04:52:14;;;;;;;4.57;2.38;;;;;;;;;;5115353;28;20047;-71
2021/11/08 05:24:46;;;;;;;4.03;2.00;;;;;;;;;;5111015;28;20016;-72
2021/11/08 05:30:09;;;;;;;4.47;2.08;;;;;;;;;;5103236;28;20043;-74
2021/11/08 05:32:37;;;;;;;4.13;1.73;;;;;;;;;;5075749;28;20572;-71
2021/11/08 05:35:04;;;;;;;4.38;2.00;;;;;;;;;;5097377;28;20027;-73
2021/11/08 05:37:31;;;;;;;3.70;1.92;;;;;;;;;;5113456;28;20035;-73
2021/11/08 05:40:04;;;;;;;6.35;2.03;;;;;;;;;;5094568;28;20044;-70
2021/11/08 05:42:30;;;;;;;6.38;2.45;;;;;;;;;;5111428;28;20023;-73
2021/11/08 05:44:56;;;;;;;3.70;1.98;;;;;;;;;;5114050;28;20020;-71
2021/11/08 05:47:22;;;;;;;3.17;1.65;;;;;;;;;;5092666;28;20034;-72
2021/11/08 05:49:49;;;;;;;4.13;1.90;;;;;;;;;;5114262;28;20454;-71
2021/11/08 05:52:15;;;;;;;4.20;1.80;;;;;;;;;;5111088;28;20035;-71
2021/11/08 05:54:43;;;;;;;4.65;1.73;;;;;;;;;;5110917;28;20027;-73
2021/11/08 06:51:54;;;;;;;8.18;2.17;;;;;;;;;;5067753;28;20082;-72
2021/11/08 06:54:21;;;;;;;5.55;1.88;;;;;;;;;;5074640;28;20024;-72
2021/11/08 06:56:58;;;;;;;4.45;1.92;;;;;;;;;;5085381;28;20031;-72
2021/11/08 06:59:25;;;;;;;4.60;2.10;;;;;;;;;;5094028;28;20044;-73
2021/11/08 07:01:51;;;;;;;4.90;2.17;;;;;;;;;;5093395;28;20467;-72
2021/11/08 07:04:18;;;;;;;6.07;2.08;;;;;;;;;;5096247;28;20039;-72
2021/11/08 07:06:45;;;;;;;6.72;1.73;;;;;;;;;;5092438;28;20020;-70
2021/11/08 07:09:11;;;;;;;3.22;1.65;;;;;;;;;;5083174;28;20099;-73
2021/11/08 07:11:38;;;;;;;3.70;1.90;;;;;;;;;;5092666;28;20035;-71
2021/11/08 07:14:05;;;;;;;4.63;1.48;;;;;;;;;;5101650;28;20073;-71
2021/11/08 07:16:31;;;;;;;3.45;1.70;;;;;;;;;;5112864;28;20035;-70
2021/11/08 07:18:57;;;;;;;5.35;2.00;;;;;;;;;;5110369;28;20037;-71
2021/11/08 07:21:23;;;;;;;4.43;2.00;;;;;;;;;;5110630;28;20030;-71
2021/11/08 07:23:49;;;;;;;3.35;1.70;;;;;;;;;;5112876;28;20098;-71
2021/11/08 07:26:16;;;;;;;3.50;1.73;;;;;;;;;;5109902;27;20031;-71
2021/11/08 07:28:42;;;;;;;4.88;1.75;;;;;;;;;;5094240;28;20027;-72
2021/11/08 07:31:11;;;;;;;3.47;1.85;;;;;;;;;;5106542;28;20022;-72
2021/11/08 07:33:38;;;;;;;3.65;2.00;;;;;;;;;;5073351;28;20090;-71
2021/11/08 07:36:04;;;;;;;3.60;1.70;;;;;;;;;;5070454;28;20056;-71
2021/11/08 07:38:31;;;;;;;4.53;1.73;;;;;;;;;;5068985;28;20024;-71
2021/11/08 07:40:58;;;;;;;3.42;1.60;;;;;;;;;;5070485;28;20021;-73
2021/11/08 07:43:25;;;;;;;4.55;1.80;;;;;;;;;;5068923;28;20107;-71
2021/11/08 07:45:52;;;;;;;3.80;1.80;;;;;;;;;;5072001;28;20012;-71
2021/11/08 07:48:18;;;;;;;4.22;1.90;;;;;;;;;;5067710;28;20559;-71
2021/11/08 07:50:44;;;;;;;4.32;1.85;;;;;;;;;;5087267;28;20052;-71
2021/11/08 07:53:10;;;;;;;5.53;2.05;;;;;;;;;;5071950;28;20017;-71
2021/11/08 07:55:38;;;;;;;6.65;1.58;;;;;;;;;;5068076;28;20067;-71
2021/11/08 07:58:05;;;;;;;3.38;1.55;;;;;;;;;;5071568;28;20028;-71
2021/11/08 08:00:32;;;;;;;4.85;1.55;;;;;;;;;;5068378;28;20463;-72
2021/11/08 08:02:58;;;;;;;3.63;1.77;;;;;;;;;;5071311;28;20463;-70
2021/11/08 08:05:24;;;;;;;4.70;2.00;;;;;;;;;;5069458;28;20021;-70
2021/11/08 08:07:50;;;;;;;3.70;1.42;;;;;;;;;;5070648;28;20047;-71
2021/11/08 08:10:16;;;;;;;45.35;4.07;;;;;;;;;;5063203;28;20029;-70
2021/11/08 08:12:42;;;;;;;34.17;3.17;;;;;;;;;;5055120;28;20021;-72
2021/11/08 08:15:08;;;;;;;10.55;2.00;;;;;;;;;;5073404;28;20478;-71
2021/11/08 08:17:38;;;;;;;15.55;2.28;;;;;;;;;;5073987;28;20111;-69
2021/11/08 08:20:05;;;;;;;19.77;2.30;;;;;;;;;;5074070;28;20111;-71
2021/11/08 08:22:31;;;;;;;10.82;2.25;;;;;;;;;;5074320;28;20020;-71
2021/11/08 08:24:57;;;;;;;13.57;2.10;;;;;;;;;;5074131;28;20029;-71
2021/11/08 08:27:23;;;;;;;6.85;1.70;;;;;;;;;;5074692;28;20028;-70
2021/11/08 08:29:51;;;;;;;13.82;2.25;;;;;;;;;;5055467;28;20060;-71
2021/11/08 08:32:17;;;;;;;6.95;1.67;;;;;;;;;;5092894;28;20055;-73
2021/11/08 08:34:44;;;;;;;5.45;1.90;;;;;;;;;;5095303;28;20024;-70
2021/11/08 08:37:10;;;;;;;8.88;2.03;;;;;;;;;;5093916;28;20044;-70
2021/11/08 08:39:36;;;;;;;7.68;2.05;;;;;;;;;;5095269;28;20016;-73
2021/11/08 08:42:02;;;;;;;5.85;1.75;;;;;;;;;;5093978;28;20031;-70
2021/11/08 08:44:28;;;;;;;5.50;1.65;;;;;;;;;;5092858;28;20145;-70
2021/11/08 08:46:54;;;;;;;3.78;1.63;;;;;;;;;;5054879;28;20028;-71
2021/11/08 08:49:22;;;;;;;5.32;1.55;;;;;;;;;;5070405;28;20280;-72
2021/11/08 08:51:48;;;;;;;5.03;1.90;;;;;;;;;;5054791;28;20027;-70
2021/11/08 08:54:14;;;;;;;4.18;1.65;;;;;;;;;;5054978;28;20021;-70
2021/11/08 08:56:41;;;;;;;9.90;1.42;;;;;;;;;;5054699;28;20475;-70
2021/11/08 08:59:07;;;;;;;4.18;1.55;;;;;;;;;;5054471;28;20115;-70
2021/11/08 09:01:34;;;;;;;6.72;1.80;;;;;;;;;;5055305;28;20486;-71
2021/11/08 09:04:00;;;;;;;6.68;1.83;;;;;;;;;;5063372;28;20525;-70
2021/11/08 09:06:27;;;;;;;10.27;1.77;;;;;;;;;;5073525;28;20165;-69
2021/11/08 09:08:54;;;;;;;7.20;1.95;;;;;;;;;;5074558;28;20021;-71
2021/11/08 09:11:21;;;;;;;4.18;1.73;;;;;;;;;;5074897;28;20078;-71
2021/11/08 09:13:48;;;;;;;5.55;1.73;;;;;;;;;;5073542;28;20111;-72
2021/11/08 09:16:14;;;;;;;7.47;1.95;;;;;;;;;;5074419;28;20426;-72
2021/11/08 09:18:41;;;;;;;5.15;1.92;;;;;;;;;;5073504;28;20127;-71
2021/11/08 09:21:08;;;;;;;10.63;1.92;;;;;;;;;;5073209;28;20021;-73
2021/11/08 09:23:34;;;;;;;2.90;1.40;;;;;;;;;;5072354;28;20498;-72
2021/11/08 09:26:01;;;;;;;5.05;1.65;;;;;;;;;;5074460;28;20392;-72
2021/11/08 09:28:27;;;;;;;4.95;1.70;;;;;;;;;;5074476;28;20020;-72
2021/11/08 09:30:53;;;;;;;3.83;1.52;;;;;;;;;;5073147;28;20024;-72
2021/11/08 09:33:19;;;;;;;6.07;1.90;;;;;;;;;;5104664;28;20062;-72
2021/11/08 09:35:49;;;;;;;3.30;1.60;;;;;;;;;;5115039;28;20105;-72
2021/11/08 09:38:16;;;;;;;4.47;1.80;;;;;;;;;;5114845;28;20042;-71
2021/11/08 09:40:43;;;;;;;4.30;1.50;;;;;;;;;;5114556;28;20500;-71
2021/11/08 09:43:11;;;;;;;4.75;1.80;;;;;;;;;;5114448;28;20099;-72
2021/11/08 09:45:38;;;;;;;4.68;1.80;;;;;;;;;;5096418;28;20023;-71
2021/11/08 09:48:04;;;;;;;4.85;1.55;;;;;;;;;;5114758;28;20020;-70
2021/11/08 09:50:32;;;;;;;5.13;1.92;;;;;;;;;;5096430;28;20023;-71
2021/11/08 09:52:59;;;;;;;3.42;1.52;;;;;;;;;;5114770;28;20445;-71
2021/11/08 09:55:25;;;;;;;6.43;1.70;;;;;;;;;;5114691;28;20050;-73
2021/11/08 09:57:53;;;;;;;5.32;1.65;;;;;;;;;;5114464;28;20032;-74
2021/11/08 10:00:43;;;;;;;3.47;1.50;;;;;;;;;;5114567;28;20020;-73
2021/11/08 10:03:11;;;;;;;4.45;2.00;;;;;;;;;;5096122;28;20377;-72
2021/11/08 10:05:45;;;;;;;4.65;1.60;;;;;;;;;;5114558;28;20019;-72
2021/11/08 10:08:12;;;;;;;5.25;1.90;;;;;;;;;;5114180;28;20344;-72
2021/11/08 10:10:38;;;;;;;3.55;1.60;;;;;;;;;;5113776;28;20504;-72
2021/11/08 10:13:07;;;;;;;3.42;1.42;;;;;;;;;;5095492;28;20054;-71
2021/11/08 10:15:35;;;;;;;3.83;1.77;;;;;;;;;;5114260;28;20024;-72
2021/11/08 10:18:02;;;;;;;5.00;1.40;;;;;;;;;;5114160;28;20137;-71
2021/11/08 10:20:30;;;;;;;4.65;1.60;;;;;;;;;;5113780;28;20092;-73
2021/11/08 10:22:57;;;;;;;4.78;1.50;;;;;;;;;;5095642;28;20487;-72
2021/11/08 10:25:23;;;;;;;3.25;1.38;;;;;;;;;;5113828;28;20136;-73
2021/11/08 10:27:49;;;;;;;3.45;1.40;;;;;;;;;;5113779;28;20019;-73
2021/11/08 10:30:41;;;;;;;2.88;1.45;;;;;;;;;;5113557;28;20039;-72
2021/11/08 10:33:09;;;;;;;2.65;1.20;;;;;;;;;;5110494;28;20152;-73
2021/11/08 10:35:55;;;;;;;3.70;1.40;;;;;;;;;;5113327;28;20421;-72
2021/11/08 10:38:28;;;;;;;3.58;1.38;;;;;;;;;;5113369;28;20035;-72
2021/11/08 10:41:02;;;;;;;4.38;1.73;;;;;;;;;;5096329;28;20054;-73
2021/11/08 10:43:28;;;;;;;2.90;1.42;;;;;;;;;;5113360;28;20102;-72
2021/11/08 10:45:56;;;;;;;4.65;1.52;;;;;;;;;;5113634;28;20058;-72
2021/11/08 10:48:23;;;;;;;3.08;1.27;;;;;;;;;;5113758;28;20016;-73
2021/11/08 10:50:50;;;;;;;4.38;1.52;;;;;;;;;;5113179;28;20463;-72
2021/11/08 10:53:16;;;;;;;3.25;1.42;;;;;;;;;;5094759;28;20402;-74
2021/11/08 10:55:42;;;;;;;4.45;1.55;;;;;;;;;;5113121;28;20055;-73
2021/11/08 10:58:10;;;;;;;4.05;1.60;;;;;;;;;;5113033;28;20110;-73
2021/11/08 11:00:55;;;;;;;4.15;1.40;;;;;;;;;;5112982;28;20020;-74
2021/11/08 11:03:22;;;;;;;4.80;1.55;;;;;;;;;;5107019;28;20020;-74
2021/11/08 11:05:55;;;;;;;5.40;1.60;;;;;;;;;;5092661;28;20024;-74
2021/11/08 11:08:21;;;;;;;4.18;1.40;;;;;;;;;;5074355;28;20032;-73
2021/11/08 11:11:00;;;;;;;2.95;1.10;;;;;;;;;;5092594;28;20017;-73
2021/11/08 11:13:27;;;;;;;4.00;1.52;;;;;;;;;;5092525;28;20059;-71
2021/11/08 11:16:02;;;;;;;5.18;1.45;;;;;;;;;;5092495;28;20477;-72
2021/11/08 11:18:36;;;;;;;3.53;1.40;;;;;;;;;;5092062;28;20391;-71
2021/11/08 11:21:13;;;;;;;2.80;1.40;;;;;;;;;;5092190;28;20016;-73
2021/11/08 11:23:46;;;;;;;3.30;1.30;;;;;;;;;;5092001;28;20028;-74
2021/11/08 11:26:13;;;;;;;4.88;1.40;;;;;;;;;;5074437;28;20042;-73
2021/11/08 11:28:41;;;;;;;5.50;1.70;;;;;;;;;;5093373;28;20020;-72
2021/11/08 11:31:12;;;;;;;3.80;1.30;;;;;;;;;;5092655;28;20456;-73
2021/11/08 11:33:38;;;;;;;3.13;1.45;;;;;;;;;;5092044;28;20056;-72
2021/11/08 11:36:08;;;;;;;4.07;1.80;;;;;;;;;;5092327;28;20103;-73
2021/11/08 11:38:38;;;;;;;4.13;1.67;;;;;;;;;;5073946;28;20053;-73
2021/11/08 11:41:07;;;;;;;3.70;1.60;;;;;;;;;;5091876;28;20065;-71
2021/11/08 11:43:38;;;;;;;4.35;1.40;;;;;;;;;;5092289;28;20107;-72
2021/11/08 11:46:07;;;;;;;5.60;1.80;;;;;;;;;;5091674;28;20032;-73
2021/11/08 11:48:34;;;;;;;3.80;1.45;;;;;;;;;;5074068;28;20404;-72
2021/11/08 11:51:06;;;;;;;4.78;1.58;;;;;;;;;;5092302;28;20055;-75
2021/11/08 11:53:33;;;;;;;5.20;1.23;;;;;;;;;;5074276;28;20021;-71
2021/11/08 11:56:00;;;;;;;4.00;1.50;;;;;;;;;;5073774;28;20471;-72
2021/11/08 11:58:26;;;;;;;4.03;1.35;;;;;;;;;;5091783;28;20484;-72
2021/11/08 12:00:53;;;;;;;5.72;1.38;;;;;;;;;;5073446;28;20551;-73
2021/11/08 12:03:20;;;;;;;6.75;1.42;;;;;;;;;;5074066;28;20036;-71
2021/11/08 12:05:47;;;;;;;5.25;1.55;;;;;;;;;;5091792;28;20016;-72
2021/11/08 12:08:14;;;;;;;4.18;1.35;;;;;;;;;;5092141;28;20020;-71
2021/11/08 12:10:52;;;;;;;5.50;1.70;;;;;;;;;;5073653;28;20024;-73
2021/11/08 12:13:20;;;;;;;4.90;1.63;;;;;;;;;;5091999;28;20023;-72
2021/11/08 12:15:47;;;;;;;4.82;1.63;;;;;;;;;;5073528;28;20020;-71
2021/11/08 12:18:15;;;;;;;3.17;1.10;;;;;;;;;;5073348;28;20138;-72
2021/11/08 12:20:49;;;;;;;5.20;1.30;;;;;;;;;;5091672;28;20013;-71
2021/11/08 12:23:27;;;;;;;4.78;1.60;;;;;;;;;;5073856;28;20092;-70
2021/11/08 12:25:53;;;;;;;4.75;1.63;;;;;;;;;;5073707;28;20031;-71
2021/11/08 12:28:22;;;;;;;4.15;1.63;;;;;;;;;;5092133;28;20012;-72
2021/11/08 12:30:50;;;;;;;4.72;1.67;;;;;;;;;;5091694;28;20016;-72
2021/11/08 12:33:29;;;;;;;3.38;1.40;;;;;;;;;;5091435;28;20059;-73
2021/11/08 12:35:59;;;;;;;3.42;1.25;;;;;;;;;;5091793;28;20024;-74
2021/11/08 12:38:28;;;;;;;3.33;1.20;;;;;;;;;;5073299;28;20032;-73
2021/11/08 12:41:08;;;;;;;5.07;1.40;;;;;;;;;;5091439;28;20024;-74
2021/11/08 12:43:34;;;;;;;3.90;1.23;;;;;;;;;;5102941;28;20049;-73
2021/11/08 12:46:12;;;;;;;6.30;1.40;;;;;;;;;;5093830;28;20076;-74
2021/11/08 12:48:38;;;;;;;4.65;1.70;;;;;;;;;;5111882;28;20044;-73
2021/11/08 12:51:05;;;;;;;4.97;1.10;;;;;;;;;;5093468;28;20020;-74
2021/11/08 12:53:33;;;;;;;3.45;1.38;;;;;;;;;;5111856;28;20015;-73
2021/11/08 12:56:01;;;;;;;3.63;1.33;;;;;;;;;;5111823;28;20627;-74
2021/11/08 12:58:39;;;;;;;3.92;1.30;;;;;;;;;;5114608;28;20032;-72
2021/11/08 13:01:07;;;;;;;3.90;1.40;;;;;;;;;;5115634;28;20027;-72
2021/11/08 13:03:41;;;;;;;4.75;1.70;;;;;;;;;;5096008;28;20561;-71
2021/11/08 13:06:22;;;;;;;3.55;1.30;;;;;;;;;;5097180;28;20477;-72
2021/11/08 13:08:48;;;;;;;3.90;1.35;;;;;;;;;;5115239;28;20058;-72
2021/11/08 13:11:15;;;;;;;2.28;1.00;;;;;;;;;;5096881;28;20031;-73
2021/11/08 13:13:43;;;;;;;6.53;1.40;;;;;;;;;;5115189;28;20020;-74
2021/11/08 13:16:11;;;;;;;3.22;0.80;;;;;;;;;;5096956;28;20028;-74
2021/11/08 13:18:38;;;;;;;3.95;1.00;;;;;;;;;;5115036;28;20035;-73
2021/11/08 13:21:05;;;;;;;2.80;1.15;;;;;;;;;;5096736;28;20110;-72
2021/11/08 13:23:34;;;;;;;5.68;1.17;;;;;;;;;;5096735;28;20020;-73
2021/11/08 13:26:00;;;;;;;3.97;1.20;;;;;;;;;;5096452;28;20105;-72
2021/11/08 13:28:27;;;;;;;2.90;1.00;;;;;;;;;;5114655;28;20027;-72
2021/11/08 13:30:56;;;;;;;3.60;1.23;;;;;;;;;;5114812;28;20151;-72
2021/11/08 13:33:27;;;;;;;5.50;1.40;;;;;;;;;;5114664;28;20052;-74
2021/11/08 13:35:54;;;;;;;4.20;1.48;;;;;;;;;;5095792;28;20057;-73
2021/11/08 13:38:31;;;;;;;4.30;1.30;;;;;;;;;;5114225;28;20111;-74
2021/11/08 13:41:16;;;;;;;3.00;1.13;;;;;;;;;;5114337;28;20091;-73
2021/11/08 13:43:43;;;;;;;3.65;1.25;;;;;;;;;;5114334;28;20043;-72
2021/11/08 13:46:20;;;;;;;4.60;1.10;;;;;;;;;;5114247;28;20546;-72
2021/11/08 13:48:50;;;;;;;4.30;1.30;;;;;;;;;;5114082;28;20027;-72
2021/11/08 13:51:23;;;;;;;4.78;1.30;;;;;;;;;;5114174;28;20043;-72
2021/11/08 13:53:53;;;;;;;4.95;1.23;;;;;;;;;;5114219;28;20019;-72
2021/11/08 13:56:19;;;;;;;5.75;1.33;;;;;;;;;;5113900;28;20023;-72
2021/11/08 13:58:52;;;;;;;4.22;1.27;;;;;;;;;;5113707;28;20092;-72
2021/11/08 14:01:20;;;;;;;3.10;1.10;;;;;;;;;;5114322;28;20110;-72
2021/11/08 14:03:47;;;;;;;1.88;1.00;;;;;;;;;;5114306;28;20023;-73
2021/11/08 14:06:14;;;;;;;3.90;1.20;;;;;;;;;;5114027;28;20426;-73
2021/11/08 14:08:45;;;;;;;2.72;1.02;;;;;;;;;;5113408;28;20023;-72
2021/11/08 14:11:11;;;;;;;2.72;0.98;;;;;;;;;;5114188;28;20020;-72
2021/11/08 14:13:38;;;;;;;6.07;1.45;;;;;;;;;;5113925;28;20015;-72
2021/11/08 14:16:09;;;;;;;3.38;1.02;;;;;;;;;;5114333;28;20030;-72
2021/11/08 14:18:35;;;;;;;3.55;1.17;;;;;;;;;;5113951;28;20508;-71
2021/11/08 14:21:08;;;;;;;3.53;1.15;;;;;;;;;;5113949;28;20024;-71
2021/11/08 14:23:34;;;;;;;4.95;1.30;;;;;;;;;;5113965;28;20035;-72
2021/11/08 14:26:12;;;;;;;3.17;1.45;;;;;;;;;;5114384;28;20031;-72
2021/11/08 14:28:39;;;;;;;3.85;1.00;;;;;;;;;;5114084;28;20019;-72
2021/11/08 14:31:15;;;;;;;3.17;1.30;;;;;;;;;;5095791;28;20024;-71
2021/11/08 14:33:42;;;;;;;4.13;1.10;;;;;;;;;;5113680;28;20048;-70
2021/11/08 14:36:15;;;;;;;3.72;1.42;;;;;;;;;;5113834;28;20023;-70
2021/11/08 14:38:46;;;;;;;5.47;1.55;;;;;;;;;;5113634;28;20049;-70
2021/11/08 14:41:12;;;;;;;6.90;1.52;;;;;;;;;;5095160;28;20019;-70
2021/11/08 14:43:39;;;;;;;7.15;1.10;;;;;;;;;;5113437;28;20099;-70
2021/11/08 14:46:09;;;;;;;5.93;1.23;;;;;;;;;;5113689;28;20542;-73
2021/11/08 14:48:36;;;;;;;3.95;1.35;;;;;;;;;;5095291;28;20024;-72
2021/11/08 14:51:10;;;;;;;4.68;1.90;;;;;;;;;;5095230;28;20081;-73
2021/11/08 14:53:37;;;;;;;3.28;1.30;;;;;;;;;;5095357;28;20025;-71
2021/11/08 14:56:24;;;;;;;9.15;1.40;;;;;;;;;;5095248;28;20030;-71
2021/11/08 14:58:59;;;;;;;3.33;1.30;;;;;;;;;;5113276;28;20066;-72
2021/11/08 15:01:25;;;;;;;6.00;1.58;;;;;;;;;;5095040;28;20020;-72
2021/11/08 15:04:24;;;;;;;5.00;1.50;;;;;;;;;;5111281;28;20644;-73
2021/11/08 15:06:54;;;;;;;3.72;1.65;;;;;;;;;;5061797;28;20062;-72
2021/11/08 15:09:20;;;;;;;3.38;1.63;;;;;;;;;;5113522;28;20023;-72
2021/11/08 15:11:47;;;;;;;3.58;1.50;;;;;;;;;;5094885;28;20029;-72
2021/11/08 15:14:15;;;;;;;4.70;1.85;;;;;;;;;;5113015;28;20520;-73
2021/11/08 15:16:55;;;;;;;3.25;1.50;;;;;;;;;;5094616;28;20038;-72
2021/11/08 15:19:23;;;;;;;5.60;1.65;;;;;;;;;;5094907;28;20028;-73
2021/11/08 15:21:53;;;;;;;3.40;1.48;;;;;;;;;;5093847;28;20019;-72
2021/11/08 15:24:23;;;;;;;3.38;1.35;;;;;;;;;;5112823;28;20023;-73
2021/11/08 15:26:50;;;;;;;4.15;1.42;;;;;;;;;;5112957;28;20031;-71
2021/11/08 15:29:27;;;;;;;3.42;1.30;;;;;;;;;;5112871;28;20110;-72
2021/11/08 15:31:56;;;;;;;3.88;1.50;;;;;;;;;;5112588;28;20012;-75
2021/11/08 15:34:23;;;;;;;4.53;1.50;;;;;;;;;;5112731;28;20515;-74
2021/11/08 15:36:51;;;;;;;4.93;1.50;;;;;;;;;;5094812;28;20440;-74
2021/11/08 15:39:26;;;;;;;4.30;1.52;;;;;;;;;;5112864;28;20390;-74
2021/11/08 15:41:52;;;;;;;3.67;1.33;;;;;;;;;;5112806;28;20108;-72
2021/11/08 15:44:18;;;;;;;3.45;1.27;;;;;;;;;;5112916;28;20027;-73
2021/11/08 15:46:45;;;;;;;3.80;1.30;;;;;;;;;;5094459;28;20103;-73
2021/11/08 15:49:11;;;;;;;3.45;1.40;;;;;;;;;;5094406;28;20028;-74
2021/11/08 15:51:42;;;;;;;5.53;1.60;;;;;;;;;;5094266;28;20019;-75
2021/11/08 15:54:09;;;;;;;4.00;1.42;;;;;;;;;;5094374;28;20028;-72
2021/11/08 15:56:38;;;;;;;9.10;1.50;;;;;;;;;;5112388;28;20024;-73
2021/11/08 15:59:05;;;;;;;5.50;1.65;;;;;;;;;;5112549;28;20028;-73
2021/11/08 16:01:31;;;;;;;3.92;1.33;;;;;;;;;;5112531;28;20015;-72
2021/11/08 16:03:57;;;;;;;3.97;1.60;;;;;;;;;;5112640;28;20550;-73
2021/11/08 16:06:23;;;;;;;3.95;1.40;;;;;;;;;;5112427;28;20027;-74
2021/11/08 16:08:49;;;;;;;3.22;1.10;;;;;;;;;;5094154;28;20032;-72
2021/11/08 16:11:15;;;;;;;3.30;1.23;;;;;;;;;;5094231;28;20051;-72
2021/11/08 16:13:42;;;;;;;6.05;1.42;;;;;;;;;;5112548;28;20031;-72
2021/11/08 16:16:08;;;;;;;3.45;1.10;;;;;;;;;;5112594;28;20015;-74
2021/11/08 16:18:34;;;;;;;3.47;1.40;;;;;;;;;;5112522;28;20032;-73
2021/11/08 16:21:00;;;;;;;2.90;1.27;;;;;;;;;;5112326;28;20023;-73
2021/11/08 16:23:27;;;;;;;5.90;1.42;;;;;;;;;;5112455;28;20596;-73
2021/11/08 16:25:54;;;;;;;4.80;1.70;;;;;;;;;;5094133;28;20019;-72
2021/11/08 16:28:21;;;;;;;4.75;1.90;;;;;;;;;;5112289;28;20110;-72
2021/11/08 16:30:47;;;;;;;4.05;1.70;;;;;;;;;;5112193;28;20028;-74
2021/11/08 16:33:22;;;;;;;3.97;1.60;;;;;;;;;;5114916;28;20126;-73
2021/11/08 16:35:49;;;;;;;3.63;1.42;;;;;;;;;;5116361;28;20016;-73
2021/11/08 16:38:25;;;;;;;4.93;1.63;;;;;;;;;;5116082;28;20031;-72
2021/11/08 16:40:56;;;;;;;5.32;1.58;;;;;;;;;;5097739;28;20024;-74
2021/11/08 16:43:24;;;;;;;3.47;1.30;;;;;;;;;;5115916;28;20020;-74